sensor_id;sensor_type;location;lat;lon;timestamp;temperature;humidity
19044;DHT22;9654;52.302;8.120;2022-08-01T00:01:24;18.60;99.90
19044;DHT22;9654;52.302;8.120;2022-08-01T00:03:51;18.50;99.90
19044;DHT22;9654;52.302;8.120;2022-08-01T00:06:18;18.50;99.90
19044;DHT22;9654;52.302;8.120;2022-08-01T00:08:45;18.50;99.90
19044;DHT22;9654;52.302;8.120;2022-08-01T00:11:11;18.50;99.90
19044;DHT22;9654;52.302;8.120;2022-08-01T00:13:39;18.40;99.90
19044;DHT22;9654;52.302;8.120;2022-08-01T00:16:06;18.40;99.90
19044;DHT22;9654;52.302;8.120;2022-08-01T00:18:34;18.40;99.90
19044;DHT22;9654;52.302;8.120;2022-08-01T00:21:02;18.50;99.90
19044;DHT22;9654;52.302;8.120;2022-08-01T00:23:29;18.50;99.90
19044;DHT22;9654;52.302;8.120;2022-08-01T00:25:55;18.40;99.90
19044;DHT22;9654;52.302;8.120;2022-08-01T00:28:22;18.40;99.90
19044;DHT22;9654;52.302;8.120;2022-08-01T00:30:49;18.40;99.90
19044;DHT22;9654;52.302;8.120;2022-08-01T00:33:16;18.40;99.90
19044;DHT22;9654;52.302;8.120;2022-08-01T00:35:44;18.40;99.90
19044;DHT22;9654;52.302;8.120;2022-08-01T00:38:11;18.40;99.90
19044;DHT22;9654;52.302;8.120;2022-08-01T00:40:39;18.40;99.90
19044;DHT22;9654;52.302;8.120;2022-08-01T00:43:06;18.40;99.90
19044;DHT22;9654;52.302;8.120;2022-08-01T00:45:33;18.30;99.90
19044;DHT22;9654;52.302;8.120;2022-08-01T00:47:59;18.30;99.90
19044;DHT22;9654;52.302;8.120;2022-08-01T00:50:26;18.30;99.90
19044;DHT22;9654;52.302;8.120;2022-08-01T00:52:55;18.30;99.90
19044;DHT22;9654;52.302;8.120;2022-08-01T00:55:26;18.30;99.90
19044;DHT22;9654;52.302;8.120;2022-08-01T00:57:53;18.30;99.90
19044;DHT22;9654;52.302;8.120;2022-08-01T01:00:21;18.20;99.90
19044;DHT22;9654;52.302;8.120;2022-08-01T01:02:48;18.20;99.90
19044;DHT22;9654;52.302;8.120;2022-08-01T01:05:15;18.20;99.90
19044;DHT22;9654;52.302;8.120;2022-08-01T01:07:49;18.20;99.90
19044;DHT22;9654;52.302;8.120;2022-08-01T01:10:22;18.20;99.90
19044;DHT22;9654;52.302;8.120;2022-08-01T01:12:54;18.20;99.90
19044;DHT22;9654;52.302;8.120;2022-08-01T01:15:28;18.20;99.90
19044;DHT22;9654;52.302;8.120;2022-08-01T01:18:00;18.20;99.90
19044;DHT22;9654;52.302;8.120;2022-08-01T01:20:30;18.20;99.90
19044;DHT22;9654;52.302;8.120;2022-08-01T01:23:12;18.20;99.90
19044;DHT22;9654;52.302;8.120;2022-08-01T01:25:54;18.20;99.90
19044;DHT22;9654;52.302;8.120;2022-08-01T01:28:29;18.20;99.90
19044;DHT22;9654;52.302;8.120;2022-08-01T01:31:02;18.20;99.90
19044;DHT22;9654;52.302;8.120;2022-08-01T01:33:34;18.10;99.90
19044;DHT22;9654;52.302;8.120;2022-08-01T01:36:05;18.00;99.90
19044;DHT22;9654;52.302;8.120;2022-08-01T01:38:39;18.00;99.90
19044;DHT22;9654;52.302;8.120;2022-08-01T01:41:08;18.00;99.90
19044;DHT22;9654;52.302;8.120;2022-08-01T01:43:37;17.90;99.90
19044;DHT22;9654;52.302;8.120;2022-08-01T01:46:07;18.00;99.90
19044;DHT22;9654;52.302;8.120;2022-08-01T01:48:34;18.00;99.90
19044;DHT22;9654;52.302;8.120;2022-08-01T01:51:03;18.00;99.90
19044;DHT22;9654;52.302;8.120;2022-08-01T01:53:33;18.00;99.90
19044;DHT22;9654;52.302;8.120;2022-08-01T01:56:01;18.00;99.90
19044;DHT22;9654;52.302;8.120;2022-08-01T01:58:29;18.00;99.90
19044;DHT22;9654;52.302;8.120;2022-08-01T02:00:59;18.00;99.90
19044;DHT22;9654;52.302;8.120;2022-08-01T02:03:28;18.00;99.90
19044;DHT22;9654;52.302;8.120;2022-08-01T02:05:57;18.00;99.90
19044;DHT22;9654;52.302;8.120;2022-08-01T02:08:24;18.00;99.90
19044;DHT22;9654;52.302;8.120;2022-08-01T02:10:53;18.00;99.90
19044;DHT22;9654;52.302;8.120;2022-08-01T02:13:40;18.00;99.90
19044;DHT22;9654;52.302;8.120;2022-08-01T02:16:09;18.00;99.90
19044;DHT22;9654;52.302;8.120;2022-08-01T02:18:38;18.00;99.90
19044;DHT22;9654;52.302;8.120;2022-08-01T02:21:09;17.90;99.90
19044;DHT22;9654;52.302;8.120;2022-08-01T02:23:39;18.00;99.90
19044;DHT22;9654;52.302;8.120;2022-08-01T02:26:09;18.00;99.90
19044;DHT22;9654;52.302;8.120;2022-08-01T02:28:42;18.00;99.90
19044;DHT22;9654;52.302;8.120;2022-08-01T02:31:12;18.00;99.90
19044;DHT22;9654;52.302;8.120;2022-08-01T02:33:45;18.00;99.90
19044;DHT22;9654;52.302;8.120;2022-08-01T02:36:14;18.00;99.90
19044;DHT22;9654;52.302;8.120;2022-08-01T02:38:43;18.00;99.90
19044;DHT22;9654;52.302;8.120;2022-08-01T02:41:14;18.00;99.90
19044;DHT22;9654;52.302;8.120;2022-08-01T02:43:46;17.90;99.90
19044;DHT22;9654;52.302;8.120;2022-08-01T02:46:17;18.00;99.90
19044;DHT22;9654;52.302;8.120;2022-08-01T02:48:48;18.00;99.90
19044;DHT22;9654;52.302;8.120;2022-08-01T02:51:19;17.90;99.90
19044;DHT22;9654;52.302;8.120;2022-08-01T02:53:48;17.90;99.90
19044;DHT22;9654;52.302;8.120;2022-08-01T02:56:17;17.90;99.90
19044;DHT22;9654;52.302;8.120;2022-08-01T02:58:46;18.00;99.90
19044;DHT22;9654;52.302;8.120;2022-08-01T03:01:14;17.90;99.90
19044;DHT22;9654;52.302;8.120;2022-08-01T03:03:41;17.90;99.90
19044;DHT22;9654;52.302;8.120;2022-08-01T03:06:10;17.90;99.90
19044;DHT22;9654;52.302;8.120;2022-08-01T03:08:38;17.90;99.90
19044;DHT22;9654;52.302;8.120;2022-08-01T03:11:07;17.90;99.90
19044;DHT22;9654;52.302;8.120;2022-08-01T03:13:35;17.90;99.90
19044;DHT22;9654;52.302;8.120;2022-08-01T03:16:04;17.90;99.90
19044;DHT22;9654;52.302;8.120;2022-08-01T03:18:32;17.90;99.90
19044;DHT22;9654;52.302;8.120;2022-08-01T03:21:00;17.90;99.90
19044;DHT22;9654;52.302;8.120;2022-08-01T03:23:30;17.90;99.90
19044;DHT22;9654;52.302;8.120;2022-08-01T03:25:59;17.90;99.90
19044;DHT22;9654;52.302;8.120;2022-08-01T03:28:27;17.90;99.90
19044;DHT22;9654;52.302;8.120;2022-08-01T03:30:57;17.90;99.90
19044;DHT22;9654;52.302;8.120;2022-08-01T03:33:25;17.90;99.90
19044;DHT22;9654;52.302;8.120;2022-08-01T03:35:54;17.80;99.90
19044;DHT22;9654;52.302;8.120;2022-08-01T03:38:23;17.90;99.90
19044;DHT22;9654;52.302;8.120;2022-08-01T03:40:53;17.90;99.90
19044;DHT22;9654;52.302;8.120;2022-08-01T03:43:28;17.90;99.90
19044;DHT22;9654;52.302;8.120;2022-08-01T03:46:00;17.90;99.90
19044;DHT22;9654;52.302;8.120;2022-08-01T03:48:28;17.90;99.90
19044;DHT22;9654;52.302;8.120;2022-08-01T03:50:58;17.90;99.90
19044;DHT22;9654;52.302;8.120;2022-08-01T03:53:30;17.90;99.90
19044;DHT22;9654;52.302;8.120;2022-08-01T03:55:58;17.90;99.90
19044;DHT22;9654;52.302;8.120;2022-08-01T03:58:27;17.90;99.90
19044;DHT22;9654;52.302;8.120;2022-08-01T04:00:55;17.90;99.90
19044;DHT22;9654;52.302;8.120;2022-08-01T04:05:49;17.90;99.90
19044;DHT22;9654;52.302;8.120;2022-08-01T04:08:16;17.90;99.90
19044;DHT22;9654;52.302;8.120;2022-08-01T04:10:43;17.90;99.90
19044;DHT22;9654;52.302;8.120;2022-08-01T04:13:11;17.90;99.90
19044;DHT22;9654;52.302;8.120;2022-08-01T04:15:38;17.90;99.90
19044;DHT22;9654;52.302;8.120;2022-08-01T04:18:05;17.90;99.90
19044;DHT22;9654;52.302;8.120;2022-08-01T04:20:32;17.90;99.90
19044;DHT22;9654;52.302;8.120;2022-08-01T04:22:59;17.90;99.90
19044;DHT22;9654;52.302;8.120;2022-08-01T04:25:29;17.90;99.90
19044;DHT22;9654;52.302;8.120;2022-08-01T04:28:00;17.90;99.90
19044;DHT22;9654;52.302;8.120;2022-08-01T04:30:33;17.90;99.90
19044;DHT22;9654;52.302;8.120;2022-08-01T04:33:01;18.00;99.90
19044;DHT22;9654;52.302;8.120;2022-08-01T04:35:32;18.00;99.90
19044;DHT22;9654;52.302;8.120;2022-08-01T04:38:01;18.00;99.90
19044;DHT22;9654;52.302;8.120;2022-08-01T04:40:29;18.00;99.90
19044;DHT22;9654;52.302;8.120;2022-08-01T04:42:56;18.00;99.90
19044;DHT22;9654;52.302;8.120;2022-08-01T04:45:23;18.00;99.90
19044;DHT22;9654;52.302;8.120;2022-08-01T04:47:52;18.00;99.90
19044;DHT22;9654;52.302;8.120;2022-08-01T04:50:19;18.00;99.90
19044;DHT22;9654;52.302;8.120;2022-08-01T04:52:47;18.10;99.90
19044;DHT22;9654;52.302;8.120;2022-08-01T04:55:14;18.00;99.90
19044;DHT22;9654;52.302;8.120;2022-08-01T04:57:45;18.10;99.90
19044;DHT22;9654;52.302;8.120;2022-08-01T05:00:13;18.00;99.90
19044;DHT22;9654;52.302;8.120;2022-08-01T05:02:42;18.00;99.90
19044;DHT22;9654;52.302;8.120;2022-08-01T05:05:10;18.10;99.90
19044;DHT22;9654;52.302;8.120;2022-08-01T05:07:36;18.00;99.90
19044;DHT22;9654;52.302;8.120;2022-08-01T05:10:04;18.10;99.90
19044;DHT22;9654;52.302;8.120;2022-08-01T05:12:31;18.10;99.90
19044;DHT22;9654;52.302;8.120;2022-08-01T05:14:58;18.10;99.90
19044;DHT22;9654;52.302;8.120;2022-08-01T05:17:25;18.10;99.90
19044;DHT22;9654;52.302;8.120;2022-08-01T05:19:52;18.10;99.90
19044;DHT22;9654;52.302;8.120;2022-08-01T05:22:20;18.20;99.90
19044;DHT22;9654;52.302;8.120;2022-08-01T05:24:47;18.30;99.90
19044;DHT22;9654;52.302;8.120;2022-08-01T05:27:14;18.30;99.90
19044;DHT22;9654;52.302;8.120;2022-08-01T05:29:41;18.30;99.90
19044;DHT22;9654;52.302;8.120;2022-08-01T05:32:08;18.30;99.90
19044;DHT22;9654;52.302;8.120;2022-08-01T05:34:35;18.30;99.90
19044;DHT22;9654;52.302;8.120;2022-08-01T05:37:02;18.20;99.90
19044;DHT22;9654;52.302;8.120;2022-08-01T05:39:30;18.10;99.90
19044;DHT22;9654;52.302;8.120;2022-08-01T05:41:57;18.10;99.90
19044;DHT22;9654;52.302;8.120;2022-08-01T05:44:24;18.00;99.90
19044;DHT22;9654;52.302;8.120;2022-08-01T05:46:51;18.00;99.90
19044;DHT22;9654;52.302;8.120;2022-08-01T05:49:18;17.90;99.90
19044;DHT22;9654;52.302;8.120;2022-08-01T05:51:45;17.90;99.90
19044;DHT22;9654;52.302;8.120;2022-08-01T05:54:11;17.90;99.90
19044;DHT22;9654;52.302;8.120;2022-08-01T05:56:39;17.90;99.90
19044;DHT22;9654;52.302;8.120;2022-08-01T05:59:06;17.90;99.90
19044;DHT22;9654;52.302;8.120;2022-08-01T06:01:33;17.90;99.90
19044;DHT22;9654;52.302;8.120;2022-08-01T06:04:00;17.90;99.90
19044;DHT22;9654;52.302;8.120;2022-08-01T06:06:27;17.90;99.90
19044;DHT22;9654;52.302;8.120;2022-08-01T06:08:53;17.90;99.90
19044;DHT22;9654;52.302;8.120;2022-08-01T06:11:20;18.00;99.90
19044;DHT22;9654;52.302;8.120;2022-08-01T06:13:49;18.10;99.90
19044;DHT22;9654;52.302;8.120;2022-08-01T06:16:16;18.10;99.90
19044;DHT22;9654;52.302;8.120;2022-08-01T06:18:43;18.20;99.90
19044;DHT22;9654;52.302;8.120;2022-08-01T06:21:10;18.30;99.90
19044;DHT22;9654;52.302;8.120;2022-08-01T06:23:36;18.40;99.90
19044;DHT22;9654;52.302;8.120;2022-08-01T06:26:03;18.50;99.90
19044;DHT22;9654;52.302;8.120;2022-08-01T06:28:30;18.60;99.90
19044;DHT22;9654;52.302;8.120;2022-08-01T06:31:22;18.60;99.90
19044;DHT22;9654;52.302;8.120;2022-08-01T06:33:51;18.70;99.90
19044;DHT22;9654;52.302;8.120;2022-08-01T06:36:18;18.70;99.90
19044;DHT22;9654;52.302;8.120;2022-08-01T06:38:45;18.80;99.90
19044;DHT22;9654;52.302;8.120;2022-08-01T06:41:12;18.90;99.90
19044;DHT22;9654;52.302;8.120;2022-08-01T06:43:39;18.90;99.90
19044;DHT22;9654;52.302;8.120;2022-08-01T06:46:06;19.00;99.90
19044;DHT22;9654;52.302;8.120;2022-08-01T06:48:34;19.00;99.90
19044;DHT22;9654;52.302;8.120;2022-08-01T06:51:04;19.10;99.90
19044;DHT22;9654;52.302;8.120;2022-08-01T06:53:35;19.10;99.90
19044;DHT22;9654;52.302;8.120;2022-08-01T06:56:03;19.10;99.90
19044;DHT22;9654;52.302;8.120;2022-08-01T06:58:30;19.10;99.90
19044;DHT22;9654;52.302;8.120;2022-08-01T07:00:57;19.00;99.90
19044;DHT22;9654;52.302;8.120;2022-08-01T07:03:23;18.80;99.90
19044;DHT22;9654;52.302;8.120;2022-08-01T07:05:52;18.70;99.90
19044;DHT22;9654;52.302;8.120;2022-08-01T07:08:18;18.70;99.90
19044;DHT22;9654;52.302;8.120;2022-08-01T07:10:46;18.60;99.90
19044;DHT22;9654;52.302;8.120;2022-08-01T07:13:12;18.50;99.90
19044;DHT22;9654;52.302;8.120;2022-08-01T07:15:41;18.50;99.90
19044;DHT22;9654;52.302;8.120;2022-08-01T07:18:08;18.50;99.90
19044;DHT22;9654;52.302;8.120;2022-08-01T07:20:37;18.60;99.90
19044;DHT22;9654;52.302;8.120;2022-08-01T07:23:05;18.60;99.90
19044;DHT22;9654;52.302;8.120;2022-08-01T07:25:32;18.60;99.90
19044;DHT22;9654;52.302;8.120;2022-08-01T07:27:59;18.60;99.90
19044;DHT22;9654;52.302;8.120;2022-08-01T07:30:25;18.70;99.90
19044;DHT22;9654;52.302;8.120;2022-08-01T07:32:52;18.80;99.90
19044;DHT22;9654;52.302;8.120;2022-08-01T07:35:19;18.80;99.90
19044;DHT22;9654;52.302;8.120;2022-08-01T07:37:46;18.90;99.90
19044;DHT22;9654;52.302;8.120;2022-08-01T07:40:15;19.00;99.90
19044;DHT22;9654;52.302;8.120;2022-08-01T07:42:43;19.10;99.90
19044;DHT22;9654;52.302;8.120;2022-08-01T07:45:10;19.30;99.90
19044;DHT22;9654;52.302;8.120;2022-08-01T07:47:37;19.40;99.90
19044;DHT22;9654;52.302;8.120;2022-08-01T07:50:06;19.60;99.90
19044;DHT22;9654;52.302;8.120;2022-08-01T07:52:33;19.70;99.90
19044;DHT22;9654;52.302;8.120;2022-08-01T07:55:00;19.70;99.90
19044;DHT22;9654;52.302;8.120;2022-08-01T07:57:29;19.70;99.90
19044;DHT22;9654;52.302;8.120;2022-08-01T07:59:56;19.70;99.90
19044;DHT22;9654;52.302;8.120;2022-08-01T08:02:22;19.80;99.90
19044;DHT22;9654;52.302;8.120;2022-08-01T08:04:49;19.90;99.90
19044;DHT22;9654;52.302;8.120;2022-08-01T08:07:16;20.00;99.90
19044;DHT22;9654;52.302;8.120;2022-08-01T08:09:43;20.10;99.90
19044;DHT22;9654;52.302;8.120;2022-08-01T08:12:09;20.30;99.90
19044;DHT22;9654;52.302;8.120;2022-08-01T08:14:38;20.50;99.90
19044;DHT22;9654;52.302;8.120;2022-08-01T08:17:06;20.80;99.90
19044;DHT22;9654;52.302;8.120;2022-08-01T08:19:33;20.90;99.90
19044;DHT22;9654;52.302;8.120;2022-08-01T08:22:02;21.00;99.90
19044;DHT22;9654;52.302;8.120;2022-08-01T08:24:29;21.20;99.90
19044;DHT22;9654;52.302;8.120;2022-08-01T08:58:12;21.30;99.90
19044;DHT22;9654;52.302;8.120;2022-08-01T09:00:40;21.20;99.90
19044;DHT22;9654;52.302;8.120;2022-08-01T09:03:07;21.20;99.90
19044;DHT22;9654;52.302;8.120;2022-08-01T09:05:34;21.30;99.90
19044;DHT22;9654;52.302;8.120;2022-08-01T09:08:00;21.40;99.90
19044;DHT22;9654;52.302;8.120;2022-08-01T09:10:27;21.50;99.90
19044;DHT22;9654;52.302;8.120;2022-08-01T09:13:09;21.60;99.90
19044;DHT22;9654;52.302;8.120;2022-08-01T09:15:45;21.50;99.90
19044;DHT22;9654;52.302;8.120;2022-08-01T09:18:30;21.40;99.90
19044;DHT22;9654;52.302;8.120;2022-08-01T09:21:14;21.20;99.90
19044;DHT22;9654;52.302;8.120;2022-08-01T09:23:45;21.10;99.90
19044;DHT22;9654;52.302;8.120;2022-08-01T09:26:14;21.00;99.90
19044;DHT22;9654;52.302;8.120;2022-08-01T09:28:43;21.00;99.90
19044;DHT22;9654;52.302;8.120;2022-08-01T09:31:12;21.00;99.90
19044;DHT22;9654;52.302;8.120;2022-08-01T09:33:50;21.10;99.90
19044;DHT22;9654;52.302;8.120;2022-08-01T09:36:17;21.20;99.90
19044;DHT22;9654;52.302;8.120;2022-08-01T09:38:44;21.40;99.90
19044;DHT22;9654;52.302;8.120;2022-08-01T09:41:11;21.40;99.90
19044;DHT22;9654;52.302;8.120;2022-08-01T09:43:38;21.50;99.90
19044;DHT22;9654;52.302;8.120;2022-08-01T09:46:09;21.60;99.90
19044;DHT22;9654;52.302;8.120;2022-08-01T09:48:37;21.50;99.90
19044;DHT22;9654;52.302;8.120;2022-08-01T09:51:05;21.20;99.90
19044;DHT22;9654;52.302;8.120;2022-08-01T09:53:43;21.20;99.90
19044;DHT22;9654;52.302;8.120;2022-08-01T09:56:11;21.40;99.90
19044;DHT22;9654;52.302;8.120;2022-08-01T09:58:53;21.40;99.90
19044;DHT22;9654;52.302;8.120;2022-08-01T10:01:22;21.40;99.90
19044;DHT22;9654;52.302;8.120;2022-08-01T10:04:07;21.20;99.90
19044;DHT22;9654;52.302;8.120;2022-08-01T10:06:34;21.00;99.90
19044;DHT22;9654;52.302;8.120;2022-08-01T10:09:01;20.90;99.90
19044;DHT22;9654;52.302;8.120;2022-08-01T10:11:29;20.90;99.90
19044;DHT22;9654;52.302;8.120;2022-08-01T10:13:58;21.00;99.90
19044;DHT22;9654;52.302;8.120;2022-08-01T10:16:28;21.00;99.90
19044;DHT22;9654;52.302;8.120;2022-08-01T10:18:57;21.10;99.90
19044;DHT22;9654;52.302;8.120;2022-08-01T10:21:25;21.40;99.90
19044;DHT22;9654;52.302;8.120;2022-08-01T10:23:54;21.50;99.90
19044;DHT22;9654;52.302;8.120;2022-08-01T10:26:22;21.80;99.90
19044;DHT22;9654;52.302;8.120;2022-08-01T10:28:51;21.90;99.90
19044;DHT22;9654;52.302;8.120;2022-08-01T10:31:19;22.40;99.90
19044;DHT22;9654;52.302;8.120;2022-08-01T10:33:47;22.70;99.90
19044;DHT22;9654;52.302;8.120;2022-08-01T10:36:17;22.90;99.90
19044;DHT22;9654;52.302;8.120;2022-08-01T10:38:45;23.00;99.90
19044;DHT22;9654;52.302;8.120;2022-08-01T10:41:13;23.00;99.90
19044;DHT22;9654;52.302;8.120;2022-08-01T10:43:41;22.90;99.90
19044;DHT22;9654;52.302;8.120;2022-08-01T10:46:08;22.80;99.90
19044;DHT22;9654;52.302;8.120;2022-08-01T10:48:42;22.80;99.90
19044;DHT22;9654;52.302;8.120;2022-08-01T10:51:12;22.70;99.90
19044;DHT22;9654;52.302;8.120;2022-08-01T10:53:46;22.90;99.90
19044;DHT22;9654;52.302;8.120;2022-08-01T10:56:13;22.90;99.90
19044;DHT22;9654;52.302;8.120;2022-08-01T10:58:42;22.90;99.90
19044;DHT22;9654;52.302;8.120;2022-08-01T11:01:14;23.00;99.90
19044;DHT22;9654;52.302;8.120;2022-08-01T11:03:43;23.10;99.90
19044;DHT22;9654;52.302;8.120;2022-08-01T11:06:17;23.10;99.90
19044;DHT22;9654;52.302;8.120;2022-08-01T11:08:50;23.10;99.90
19044;DHT22;9654;52.302;8.120;2022-08-01T11:11:18;23.60;99.90
19044;DHT22;9654;52.302;8.120;2022-08-01T11:14:02;23.90;99.90
19044;DHT22;9654;52.302;8.120;2022-08-01T11:16:34;24.00;99.90
19044;DHT22;9654;52.302;8.120;2022-08-01T11:19:01;23.80;99.90
19044;DHT22;9654;52.302;8.120;2022-08-01T11:21:59;23.90;99.90
19044;DHT22;9654;52.302;8.120;2022-08-01T11:24:54;23.90;99.90
19044;DHT22;9654;52.302;8.120;2022-08-01T11:27:24;23.70;99.90
19044;DHT22;9654;52.302;8.120;2022-08-01T11:30:22;23.70;99.90
19044;DHT22;9654;52.302;8.120;2022-08-01T11:32:52;23.60;99.90
19044;DHT22;9654;52.302;8.120;2022-08-01T11:35:19;23.50;99.90
19044;DHT22;9654;52.302;8.120;2022-08-01T11:37:50;23.40;99.90
19044;DHT22;9654;52.302;8.120;2022-08-01T11:40:19;23.50;99.90
19044;DHT22;9654;52.302;8.120;2022-08-01T11:42:46;23.30;99.90
19044;DHT22;9654;52.302;8.120;2022-08-01T11:45:13;23.30;99.90
19044;DHT22;9654;52.302;8.120;2022-08-01T11:47:45;23.30;99.90
19044;DHT22;9654;52.302;8.120;2022-08-01T11:50:31;23.30;99.90
19044;DHT22;9654;52.302;8.120;2022-08-01T11:53:04;23.50;99.90
19044;DHT22;9654;52.302;8.120;2022-08-01T11:55:32;23.50;99.90
19044;DHT22;9654;52.302;8.120;2022-08-01T11:58:03;23.50;99.90
19044;DHT22;9654;52.302;8.120;2022-08-01T12:00:30;23.50;99.90
19044;DHT22;9654;52.302;8.120;2022-08-01T12:02:58;23.60;99.90
19044;DHT22;9654;52.302;8.120;2022-08-01T12:05:26;23.80;99.90
19044;DHT22;9654;52.302;8.120;2022-08-01T12:07:53;24.20;99.90
19044;DHT22;9654;52.302;8.120;2022-08-01T12:10:23;24.50;99.90
19044;DHT22;9654;52.302;8.120;2022-08-01T12:12:52;24.70;99.90
19044;DHT22;9654;52.302;8.120;2022-08-01T12:15:20;24.60;99.90
19044;DHT22;9654;52.302;8.120;2022-08-01T12:17:48;24.60;99.90
19044;DHT22;9654;52.302;8.120;2022-08-01T12:20:19;24.80;99.90
19044;DHT22;9654;52.302;8.120;2022-08-01T12:22:46;24.70;99.90
19044;DHT22;9654;52.302;8.120;2022-08-01T12:25:14;24.40;99.90
19044;DHT22;9654;52.302;8.120;2022-08-01T12:27:45;24.30;99.90
19044;DHT22;9654;52.302;8.120;2022-08-01T12:30:14;24.50;99.90
19044;DHT22;9654;52.302;8.120;2022-08-01T12:32:46;24.30;99.90
19044;DHT22;9654;52.302;8.120;2022-08-01T12:35:15;23.90;99.90
19044;DHT22;9654;52.302;8.120;2022-08-01T12:37:43;23.70;99.90
19044;DHT22;9654;52.302;8.120;2022-08-01T12:40:13;23.50;99.90
19044;DHT22;9654;52.302;8.120;2022-08-01T12:42:41;23.50;99.90
19044;DHT22;9654;52.302;8.120;2022-08-01T12:45:10;23.70;99.90
19044;DHT22;9654;52.302;8.120;2022-08-01T12:47:38;23.80;99.90
19044;DHT22;9654;52.302;8.120;2022-08-01T12:50:06;23.80;99.90
19044;DHT22;9654;52.302;8.120;2022-08-01T12:52:34;23.90;99.90
19044;DHT22;9654;52.302;8.120;2022-08-01T12:55:03;23.90;99.90
19044;DHT22;9654;52.302;8.120;2022-08-01T12:57:31;23.70;99.90
19044;DHT22;9654;52.302;8.120;2022-08-01T13:00:17;23.90;99.90
19044;DHT22;9654;52.302;8.120;2022-08-01T13:02:44;24.10;99.90
19044;DHT22;9654;52.302;8.120;2022-08-01T13:05:12;24.40;99.90
19044;DHT22;9654;52.302;8.120;2022-08-01T13:07:45;24.20;99.90
19044;DHT22;9654;52.302;8.120;2022-08-01T13:10:13;24.10;99.90
19044;DHT22;9654;52.302;8.120;2022-08-01T13:12:50;24.20;99.90
19044;DHT22;9654;52.302;8.120;2022-08-01T13:15:22;24.20;99.90
19044;DHT22;9654;52.302;8.120;2022-08-01T13:17:50;24.30;99.90
19044;DHT22;9654;52.302;8.120;2022-08-01T13:20:31;24.30;99.90
19044;DHT22;9654;52.302;8.120;2022-08-01T13:23:11;24.50;99.90
19044;DHT22;9654;52.302;8.120;2022-08-01T13:25:53;24.70;99.90
19044;DHT22;9654;52.302;8.120;2022-08-01T13:28:21;24.60;99.90
19044;DHT22;9654;52.302;8.120;2022-08-01T13:30:54;24.50;99.90
19044;DHT22;9654;52.302;8.120;2022-08-01T13:33:21;24.30;99.90
19044;DHT22;9654;52.302;8.120;2022-08-01T13:35:50;24.30;99.90
19044;DHT22;9654;52.302;8.120;2022-08-01T13:38:17;24.20;99.90
19044;DHT22;9654;52.302;8.120;2022-08-01T13:40:43;24.30;99.90
19044;DHT22;9654;52.302;8.120;2022-08-01T13:43:10;24.20;99.90
19044;DHT22;9654;52.302;8.120;2022-08-01T13:45:37;24.20;99.90
19044;DHT22;9654;52.302;8.120;2022-08-01T13:48:06;24.30;99.90
19044;DHT22;9654;52.302;8.120;2022-08-01T13:50:33;24.20;99.90
19044;DHT22;9654;52.302;8.120;2022-08-01T13:53:00;24.20;99.90
19044;DHT22;9654;52.302;8.120;2022-08-01T13:55:26;24.40;99.90
19044;DHT22;9654;52.302;8.120;2022-08-01T13:57:53;24.40;99.90
19044;DHT22;9654;52.302;8.120;2022-08-01T14:00:20;24.20;99.90
19044;DHT22;9654;52.302;8.120;2022-08-01T14:02:47;24.00;99.90
19044;DHT22;9654;52.302;8.120;2022-08-01T14:05:15;24.00;99.90
19044;DHT22;9654;52.302;8.120;2022-08-01T14:07:42;24.00;99.90
19044;DHT22;9654;52.302;8.120;2022-08-01T14:10:10;24.00;99.90
19044;DHT22;9654;52.302;8.120;2022-08-01T14:12:36;24.00;99.90
19044;DHT22;9654;52.302;8.120;2022-08-01T14:15:04;23.90;99.90
19044;DHT22;9654;52.302;8.120;2022-08-01T14:17:32;23.60;99.90
19044;DHT22;9654;52.302;8.120;2022-08-01T14:19:59;23.60;99.90
19044;DHT22;9654;52.302;8.120;2022-08-01T14:22:27;23.60;99.90
19044;DHT22;9654;52.302;8.120;2022-08-01T14:24:54;23.80;99.90
19044;DHT22;9654;52.302;8.120;2022-08-01T14:27:21;24.20;99.90
19044;DHT22;9654;52.302;8.120;2022-08-01T14:29:47;24.50;99.90
19044;DHT22;9654;52.302;8.120;2022-08-01T14:32:14;24.70;99.90
19044;DHT22;9654;52.302;8.120;2022-08-01T14:34:41;25.20;99.90
19044;DHT22;9654;52.302;8.120;2022-08-01T14:37:08;25.40;99.90
19044;DHT22;9654;52.302;8.120;2022-08-01T14:39:36;25.10;99.90
19044;DHT22;9654;52.302;8.120;2022-08-01T14:42:03;25.10;99.90
19044;DHT22;9654;52.302;8.120;2022-08-01T14:44:30;25.30;99.90
19044;DHT22;9654;52.302;8.120;2022-08-01T14:46:56;25.70;99.90
19044;DHT22;9654;52.302;8.120;2022-08-01T14:49:23;25.50;99.90
19044;DHT22;9654;52.302;8.120;2022-08-01T14:51:50;25.90;99.90
19044;DHT22;9654;52.302;8.120;2022-08-01T14:54:17;25.90;99.90
19044;DHT22;9654;52.302;8.120;2022-08-01T14:56:45;25.50;99.90
19044;DHT22;9654;52.302;8.120;2022-08-01T14:59:12;25.70;99.90
19044;DHT22;9654;52.302;8.120;2022-08-01T15:01:39;25.80;99.90
19044;DHT22;9654;52.302;8.120;2022-08-01T15:04:06;25.50;99.90
19044;DHT22;9654;52.302;8.120;2022-08-01T15:06:33;25.50;99.90
19044;DHT22;9654;52.302;8.120;2022-08-01T15:09:00;25.00;99.90
19044;DHT22;9654;52.302;8.120;2022-08-01T15:11:26;24.60;99.90
19044;DHT22;9654;52.302;8.120;2022-08-01T15:13:54;24.30;99.90
19044;DHT22;9654;52.302;8.120;2022-08-01T15:16:35;24.10;99.90
19044;DHT22;9654;52.302;8.120;2022-08-01T15:19:02;24.00;99.90
19044;DHT22;9654;52.302;8.120;2022-08-01T15:21:29;24.00;99.90
19044;DHT22;9654;52.302;8.120;2022-08-01T15:23:56;24.00;99.90
19044;DHT22;9654;52.302;8.120;2022-08-01T15:26:23;24.20;99.90
19044;DHT22;9654;52.302;8.120;2022-08-01T15:28:49;24.40;99.90
19044;DHT22;9654;52.302;8.120;2022-08-01T15:31:18;24.80;99.90
19044;DHT22;9654;52.302;8.120;2022-08-01T15:33:45;24.80;99.90
19044;DHT22;9654;52.302;8.120;2022-08-01T15:36:12;24.80;99.90
19044;DHT22;9654;52.302;8.120;2022-08-01T15:38:38;24.60;99.90
19044;DHT22;9654;52.302;8.120;2022-08-01T15:41:05;24.40;99.90
19044;DHT22;9654;52.302;8.120;2022-08-01T15:43:32;24.20;99.90
19044;DHT22;9654;52.302;8.120;2022-08-01T15:45:59;24.20;99.90
19044;DHT22;9654;52.302;8.120;2022-08-01T15:48:28;24.30;99.90
19044;DHT22;9654;52.302;8.120;2022-08-01T15:50:54;24.50;99.90
19044;DHT22;9654;52.302;8.120;2022-08-01T15:53:21;24.40;99.90
19044;DHT22;9654;52.302;8.120;2022-08-01T15:55:48;24.40;99.90
19044;DHT22;9654;52.302;8.120;2022-08-01T15:58:15;24.50;99.90
19044;DHT22;9654;52.302;8.120;2022-08-01T16:00:42;24.60;99.90
19044;DHT22;9654;52.302;8.120;2022-08-01T16:03:08;24.60;99.90
19044;DHT22;9654;52.302;8.120;2022-08-01T16:05:37;24.50;99.90
19044;DHT22;9654;52.302;8.120;2022-08-01T16:08:04;24.50;99.90
19044;DHT22;9654;52.302;8.120;2022-08-01T16:10:31;24.70;99.90
19044;DHT22;9654;52.302;8.120;2022-08-01T16:12:58;24.80;99.90
19044;DHT22;9654;52.302;8.120;2022-08-01T16:15:25;24.80;99.90
19044;DHT22;9654;52.302;8.120;2022-08-01T16:17:51;25.00;99.90
19044;DHT22;9654;52.302;8.120;2022-08-01T16:20:18;25.10;99.90
19044;DHT22;9654;52.302;8.120;2022-08-01T16:22:46;24.90;99.90
19044;DHT22;9654;52.302;8.120;2022-08-01T16:25:13;24.50;99.90
19044;DHT22;9654;52.302;8.120;2022-08-01T16:27:40;24.20;99.90
19044;DHT22;9654;52.302;8.120;2022-08-01T16:30:08;23.70;99.90